HOQ weather

Hof-Plauen Airport
Hof, Bavaria, Germany

Public forecast

Using degrees Celsius for public forecast. Weather courtesy of forecast.io.

METAR (pilot weather report)

Report is more than 6 hours old.

Retrieved 2019/05/20 17:50 UTC (6 hours ago):

EDQM 201750Z 31005KT 9000 -RA FEW020 BKN045 BKN060 14/12 Q1001

TAF (pilot weather forecast)

Closest forecast is Grafenwohr Army Air Field, 35.6 nm (65.9 km) S. Retrieved 2019/05/20 22:19 UTC (2 hours ago):

TAF ETIC 202214Z 2022/2204 VRB06KT 5000 BR BKN007 OVC020 620703 QNH2956INS TEMPO 2022/2109 OVC012 BECMG 2109/2110 28009KT 8000 -SHRA SCT010 OVC020 620703 QNH2962INS BECMG 2111/2112 29012G20KT 8000 -SHRA OVC020 620703 QNH2968INS TEMPO 2112/2119 6000 -TSRA OVC020CB BECMG 2120/2121 32012KT 9999 NSW OVC020 620703 QNH2982INS TX17/2113Z TN11/2103Z